Time;durP1;ratioP1;P1;durP2;ratioP2;P2;SDS_P1;SDS_P2;PMS_P1;PMS_P2;Temp;Humidity;BMP_temperature;BMP_pressure;BME280_temperature;BME280_humidity;BME280_pressure;Samples;Min_cycle;Max_cycle;Signal;HPM_P1;HPM_P2
2021/01/16 00:00:50;;;;;;;50.58;17.00;;;-5.00;99.90;;;;;;4875000;29;20060;-69
2021/01/16 00:03:16;;;;;;;41.28;15.30;;;-5.00;99.90;;;;;;4880948;29;20102;-68
2021/01/16 00:05:48;;;;;;;44.90;16.25;;;-5.00;99.90;;;;;;4868946;29;20123;-69
2021/01/16 00:08:17;;;;;;;38.47;13.48;;;-5.00;99.90;;;;;;4866946;29;20085;-69
2021/01/16 00:10:49;;;;;;;45.75;14.45;;;-5.00;99.90;;;;;;4870242;29;20037;-69
2021/01/16 00:13:20;;;;;;;42.60;11.98;;;-5.10;99.90;;;;;;4871146;29;20413;-70
2021/01/16 00:15:47;;;;;;;29.73;9.50;;;-5.10;99.90;;;;;;4881875;29;20057;-69
2021/01/16 00:18:16;;;;;;;32.70;11.77;;;-5.10;99.90;;;;;;4868119;29;20041;-68
2021/01/16 00:20:49;;;;;;;43.15;12.75;;;-5.10;99.90;;;;;;4877495;29;20057;-69
2021/01/16 00:23:16;;;;;;;32.88;11.30;;;-5.10;99.90;;;;;;4866972;29;20426;-68
2021/01/16 00:25:43;;;;;;;28.77;10.80;;;-5.10;99.90;;;;;;4862024;29;20053;-69
2021/01/16 00:28:21;;;;;;;26.92;9.73;;;-5.10;99.90;;;;;;4882754;29;20063;-69
2021/01/16 00:30:51;;;;;;;35.67;10.60;;;-5.10;99.90;;;;;;4869381;29;20128;-69
2021/01/16 00:33:25;;;;;;;28.15;10.00;;;-5.10;99.90;;;;;;4882369;29;20049;-68
2021/01/16 00:35:53;;;;;;;32.20;8.40;;;-5.10;99.90;;;;;;4867403;29;20052;-70
2021/01/16 00:38:21;;;;;;;29.98;9.38;;;-5.10;99.90;;;;;;4871844;29;20045;-69
2021/01/16 00:40:48;;;;;;;27.73;9.32;;;-5.10;99.90;;;;;;4865091;29;20064;-69
2021/01/16 00:43:16;;;;;;;21.20;8.85;;;-5.10;99.90;;;;;;4869035;29;20041;-69
2021/01/16 00:45:47;;;;;;;32.40;9.65;;;-5.10;99.90;;;;;;4865361;29;20052;-70
2021/01/16 00:48:15;;;;;;;27.42;8.90;;;-5.10;99.90;;;;;;4875315;29;20089;-69
2021/01/16 00:50:46;;;;;;;29.90;10.00;;;-5.10;99.90;;;;;;4874817;29;20134;-69
2021/01/16 00:53:15;;;;;;;26.67;10.10;;;-5.00;99.90;;;;;;4877418;29;20496;-70
2021/01/16 00:55:56;;;;;;;32.40;9.35;;;-5.00;99.90;;;;;;4858846;29;20060;-69
2021/01/16 00:58:22;;;;;;;25.85;8.95;;;-5.00;99.90;;;;;;4878989;29;20045;-69
2021/01/16 01:01:01;;;;;;;32.58;8.10;;;-5.00;99.90;;;;;;4866395;29;20049;-68
2021/01/16 01:03:32;;;;;;;26.15;8.93;;;-5.00;99.90;;;;;;4872168;29;20497;-70
2021/01/16 01:05:59;;;;;;;20.70;8.43;;;-4.90;99.90;;;;;;4868513;29;20053;-70
2021/01/16 01:08:29;;;;;;;22.08;6.65;;;-4.90;99.90;;;;;;4876294;29;20093;-70
2021/01/16 01:10:57;;;;;;;26.92;8.18;;;-4.90;99.90;;;;;;4883705;29;20063;-69
2021/01/16 01:13:24;;;;;;;22.52;8.20;;;-4.90;99.90;;;;;;4872221;29;20093;-69
2021/01/16 01:15:50;;;;;;;23.50;8.02;;;-4.90;99.90;;;;;;4872463;29;20437;-69
2021/01/16 01:18:17;;;;;;;20.65;6.13;;;-4.90;99.90;;;;;;4874605;29;20049;-70
2021/01/16 01:20:44;;;;;;;28.33;6.93;;;-4.90;99.90;;;;;;4864883;29;20045;-70
2021/01/16 01:23:10;;;;;;;20.73;6.78;;;-4.90;99.90;;;;;;4868579;29;20481;-69
2021/01/16 01:25:36;;;;;;;20.95;6.55;;;-4.90;99.90;;;;;;4890782;29;20052;-69
2021/01/16 01:28:04;;;;;;;19.20;5.38;;;-4.90;99.90;;;;;;4874350;29;20045;-69
2021/01/16 01:30:31;;;;;;;16.67;5.10;;;-4.90;99.90;;;;;;4872581;29;20096;-69
2021/01/16 01:32:59;;;;;;;16.77;5.88;;;-4.90;99.90;;;;;;4861909;29;20068;-68
2021/01/16 01:35:26;;;;;;;19.15;6.05;;;-4.90;99.90;;;;;;4875160;29;20097;-69
2021/01/16 01:37:55;;;;;;;13.57;5.07;;;-4.90;99.90;;;;;;4879679;29;20045;-69
2021/01/16 01:40:24;;;;;;;18.38;6.30;;;-4.90;99.90;;;;;;4878914;29;20079;-69
2021/01/16 01:42:52;;;;;;;11.77;4.10;;;-4.90;99.90;;;;;;4878556;29;20581;-69
2021/01/16 01:45:20;;;;;;;16.70;4.95;;;-4.90;99.90;;;;;;4880323;29;20496;-68
2021/01/16 01:47:48;;;;;;;14.35;4.97;;;-4.90;99.90;;;;;;4875158;29;20057;-69
2021/01/16 01:50:17;;;;;;;16.40;4.82;;;-4.90;99.90;;;;;;4869879;29;20075;-70
2021/01/16 01:52:49;;;;;;;18.67;5.22;;;-4.90;99.90;;;;;;4891848;29;20052;-69
2021/01/16 01:55:16;;;;;;;14.35;5.07;;;-5.00;99.90;;;;;;4868822;29;20048;-69
2021/01/16 01:57:51;;;;;;;17.48;5.18;;;-5.00;99.90;;;;;;4895280;29;20412;-69
2021/01/16 02:00:18;;;;;;;12.70;4.80;;;-5.00;99.90;;;;;;4871734;29;20057;-69
2021/01/16 02:02:46;;;;;;;14.88;6.25;;;-5.00;99.90;;;;;;4873484;29;20045;-69
2021/01/16 02:05:13;;;;;;;18.40;6.35;;;-5.00;99.90;;;;;;4873910;29;20041;-69
2021/01/16 02:07:45;;;;;;;22.90;7.28;;;-5.00;99.90;;;;;;4884926;29;20061;-69
2021/01/16 02:10:24;;;;;;;20.15;7.78;;;-5.00;99.90;;;;;;4879040;29;20041;-70
2021/01/16 02:12:55;;;;;;;21.40;6.45;;;-5.10;99.90;;;;;;4889106;29;20052;-69
2021/01/16 02:15:43;;;;;;;16.42;6.43;;;-5.00;99.90;;;;;;4875885;29;20453;-68
2021/01/16 02:18:31;;;;;;;20.73;6.80;;;-5.10;99.90;;;;;;4870852;29;20045;-68
2021/01/16 02:21:00;;;;;;;15.75;5.18;;;-5.10;99.90;;;;;;4877432;29;20501;-68
2021/01/16 02:23:30;;;;;;;16.10;5.60;;;-5.10;99.90;;;;;;4878792;29;20500;-69
2021/01/16 02:26:15;;;;;;;15.88;4.95;;;-5.10;99.90;;;;;;4868995;29;20045;-68
2021/01/16 02:29:05;;;;;;;16.40;4.97;;;-5.10;99.90;;;;;;4880883;29;20040;-68
2021/01/16 02:31:37;;;;;;;16.63;5.72;;;-5.10;99.90;;;;;;4879601;29;20511;-68
2021/01/16 02:34:05;;;;;;;;;;;-5.10;99.90;;;;;;4892968;29;20053;-68
2021/01/16 02:36:32;;;;;;;12.02;3.75;;;-5.10;99.90;;;;;;4887837;29;20283;-69
2021/01/16 02:39:19;;;;;;;18.40;5.68;;;-5.00;99.90;;;;;;4883849;29;20068;-68
2021/01/16 02:41:57;;;;;;;11.55;4.18;;;-5.00;99.90;;;;;;4880052;29;20061;-68
2021/01/16 02:44:47;;;;;;;17.15;4.50;;;-5.00;99.90;;;;;;4878478;29;20048;-68
2021/01/16 02:47:29;;;;;;;14.95;4.30;;;-4.90;99.90;;;;;;4882403;29;20069;-69
2021/01/16 02:50:04;;;;;;;16.83;5.15;;;-4.90;99.90;;;;;;4890597;29;20045;-69
2021/01/16 02:52:38;;;;;;;15.15;3.95;;;-4.90;99.90;;;;;;4868006;29;20536;-69
2021/01/16 02:55:07;;;;;;;12.40;4.63;;;-4.90;99.90;;;;;;4870268;29;20053;-70
2021/01/16 02:57:33;;;;;;;17.85;5.80;;;-4.80;99.90;;;;;;4882523;29;20045;-69
2021/01/16 03:00:00;;;;;;;22.48;6.10;;;-4.80;99.90;;;;;;4876058;29;20501;-68
2021/01/16 03:02:26;;;;;;;20.92;6.53;;;-4.80;99.90;;;;;;4887532;29;20060;-69
2021/01/16 03:04:54;;;;;;;19.08;5.15;;;-4.80;99.90;;;;;;4865319;29;20045;-69
2021/01/16 03:07:22;;;;;;;17.20;5.40;;;-4.80;99.90;;;;;;4871489;29;20049;-68
2021/01/16 03:09:49;;;;;;;19.38;6.30;;;-4.80;99.90;;;;;;4871744;29;20875;-68
2021/01/16 03:12:16;;;;;;;25.10;6.47;;;-4.80;99.90;;;;;;4875027;29;20047;-68
2021/01/16 03:14:48;;;;;;;14.65;4.85;;;-4.80;99.90;;;;;;4887248;29;20049;-69
2021/01/16 03:17:17;;;;;;;16.35;4.25;;;-4.70;99.90;;;;;;4875123;29;20046;-69
2021/01/16 03:19:48;;;;;;;10.40;3.30;;;-4.70;99.90;;;;;;4869788;29;20053;-70
2021/01/16 03:22:24;;;;;;;8.23;1.90;;;-4.60;99.90;;;;;;4876710;29;20056;-68
2021/01/16 03:24:53;;;;;;;8.77;2.53;;;-4.50;99.90;;;;;;4865235;29;20057;-68
2021/01/16 03:27:20;;;;;;;11.02;2.88;;;-4.40;99.90;;;;;;4888278;29;20063;-68
2021/01/16 03:29:48;;;;;;;10.68;2.38;;;-4.30;99.90;;;;;;4874795;29;20057;-68
2021/01/16 03:32:15;;;;;;;6.20;1.95;;;-4.10;99.90;;;;;;4873979;29;20072;-68
2021/01/16 03:34:44;;;;;;;11.85;3.03;;;-4.10;99.90;;;;;;4869211;29;20048;-68
2021/01/16 03:37:11;;;;;;;14.02;2.65;;;-4.00;99.90;;;;;;4881116;29;20057;-70
2021/01/16 03:39:39;;;;;;;13.60;2.83;;;-3.90;99.90;;;;;;4875117;29;20049;-69
2021/01/16 03:42:06;;;;;;;9.77;2.97;;;-3.70;99.90;;;;;;4876541;29;20047;-68
2021/01/16 03:44:33;;;;;;;13.57;3.78;;;-3.70;99.90;;;;;;4887958;29;20120;-68
2021/01/16 03:47:00;;;;;;;13.32;3.90;;;-3.70;99.90;;;;;;4875468;29;20567;-68
2021/01/16 03:49:27;;;;;;;8.75;3.60;;;-3.70;99.90;;;;;;4877264;29;20662;-68
2021/01/16 03:51:54;;;;;;;15.43;4.68;;;-3.60;99.90;;;;;;4882565;29;20037;-68
2021/01/16 03:54:20;;;;;;;16.20;4.70;;;-3.60;99.90;;;;;;4876035;29;20060;-69
2021/01/16 03:56:47;;;;;;;23.88;5.40;;;-3.60;99.90;;;;;;4844151;29;20064;-69
2021/01/16 03:59:13;;;;;;;13.05;4.38;;;-3.70;99.90;;;;;;4867885;29;20045;-69
2021/01/16 04:01:40;;;;;;;9.75;3.33;;;-3.60;99.90;;;;;;4884528;29;20048;-69
2021/01/16 04:04:07;;;;;;;13.85;3.05;;;-3.60;99.90;;;;;;4873293;29;20114;-69
2021/01/16 04:06:33;;;;;;;10.55;2.63;;;-3.60;99.90;;;;;;4870571;29;20058;-69
2021/01/16 04:09:00;;;;;;;11.30;2.75;;;-3.50;99.90;;;;;;4868839;29;20492;-69
2021/01/16 04:11:28;;;;;;;10.98;2.83;;;-3.50;99.90;;;;;;4872592;29;20045;-69
2021/01/16 04:13:54;;;;;;;10.07;3.13;;;-3.40;99.90;;;;;;4872267;29;20057;-69
2021/01/16 04:16:24;;;;;;;9.13;2.85;;;-3.40;99.90;;;;;;4876204;29;20044;-69
2021/01/16 04:18:51;;;;;;;11.57;3.33;;;-3.30;99.90;;;;;;4859754;29;20049;-69
2021/01/16 04:21:18;;;;;;;11.90;3.63;;;-3.40;99.90;;;;;;4866765;29;20424;-69
2021/01/16 04:23:45;;;;;;;9.02;2.92;;;-3.40;99.90;;;;;;4873054;29;20457;-69
2021/01/16 04:26:11;;;;;;;11.05;3.03;;;-3.40;99.90;;;;;;4874870;29;20048;-69
2021/01/16 04:28:38;;;;;;;10.57;3.05;;;-3.40;99.90;;;;;;4867623;29;20499;-69
2021/01/16 04:31:05;;;;;;;7.40;2.83;;;-3.40;99.90;;;;;;4872067;29;20104;-69
2021/01/16 04:33:31;;;;;;;13.85;3.30;;;-3.40;99.90;;;;;;4875798;29;20493;-69
2021/01/16 04:35:58;;;;;;;15.35;3.38;;;-3.40;99.90;;;;;;4880561;29;20045;-69
2021/01/16 04:38:25;;;;;;;14.88;4.10;;;-3.40;99.90;;;;;;4874349;29;20128;-70
2021/01/16 04:40:52;;;;;;;16.73;4.53;;;-3.30;99.90;;;;;;4870792;29;20389;-70
2021/01/16 04:43:21;;;;;;;15.60;4.65;;;-3.30;99.90;;;;;;4877177;29;20041;-69
2021/01/16 04:45:50;;;;;;;15.30;5.05;;;-3.30;99.90;;;;;;4884787;29;20053;-69
2021/01/16 04:48:21;;;;;;;20.75;5.72;;;-3.30;99.90;;;;;;4888890;29;20041;-69
2021/01/16 04:50:50;;;;;;;14.40;4.97;;;-3.30;99.90;;;;;;4893146;29;20053;-69
2021/01/16 04:53:19;;;;;;;16.08;5.30;;;-3.30;99.90;;;;;;4890355;29;20106;-69
2021/01/16 04:55:47;;;;;;;14.05;3.80;;;-3.30;99.90;;;;;;4874178;29;20064;-69
2021/01/16 04:58:13;;;;;;;12.02;3.40;;;-3.20;99.90;;;;;;4867892;29;20051;-69
2021/01/16 05:00:42;;;;;;;10.75;3.03;;;-3.20;99.90;;;;;;4876822;29;20053;-69
2021/01/16 05:03:10;;;;;;;12.98;3.35;;;-3.20;99.90;;;;;;4882648;29;20101;-69
2021/01/16 05:05:39;;;;;;;9.65;2.90;;;-3.10;99.90;;;;;;4869767;29;20048;-70
2021/01/16 05:08:07;;;;;;;9.85;3.30;;;-3.10;99.90;;;;;;4874050;29;20057;-69
2021/01/16 05:10:40;;;;;;;9.68;3.90;;;-3.10;99.90;;;;;;4872476;29;20049;-70
2021/01/16 05:13:15;;;;;;;10.18;3.50;;;-3.10;99.90;;;;;;4861675;29;20049;-69
2021/01/16 05:15:44;;;;;;;11.13;3.58;;;-3.10;99.90;;;;;;4862819;29;20508;-69
2021/01/16 05:18:13;;;;;;;85.93;25.30;;;-3.10;99.90;;;;;;4861105;29;20121;-69
2021/01/16 05:20:42;;;;;;;25.55;10.52;;;-3.00;99.90;;;;;;4875698;29;20148;-69
2021/01/16 05:23:16;;;;;;;24.13;6.93;;;-3.00;99.90;;;;;;4873979;29;20077;-69
2021/01/16 05:25:50;;;;;;;15.50;5.75;;;-3.00;99.90;;;;;;4871395;29;20437;-69
2021/01/16 05:28:22;;;;;;;15.05;5.40;;;-3.00;99.90;;;;;;4874085;29;20117;-69
2021/01/16 05:30:50;;;;;;;20.10;6.10;;;-3.00;99.90;;;;;;4869329;29;20049;-70
2021/01/16 05:33:18;;;;;;;17.67;4.70;;;-3.00;99.90;;;;;;4866628;29;20093;-68
2021/01/16 05:35:45;;;;;;;10.00;3.80;;;-2.90;99.90;;;;;;4871203;29;20056;-68
2021/01/16 05:38:13;;;;;;;16.50;4.35;;;-2.80;99.90;;;;;;4878800;29;20045;-68
2021/01/16 05:40:43;;;;;;;13.07;4.22;;;-2.80;99.90;;;;;;4879799;29;20061;-68
2021/01/16 05:43:10;;;;;;;14.40;4.10;;;-2.80;99.90;;;;;;4871586;29;20049;-69
2021/01/16 05:45:39;;;;;;;14.63;4.18;;;-2.70;99.90;;;;;;4873127;29;20047;-68
2021/01/16 05:48:07;;;;;;;13.85;4.38;;;-2.70;99.90;;;;;;4873653;29;20049;-68
2021/01/16 05:50:39;;;;;;;15.55;4.25;;;-2.70;99.90;;;;;;4866642;29;20049;-68
2021/01/16 05:53:06;;;;;;;19.10;5.13;;;-2.60;99.90;;;;;;4873083;29;20421;-68
2021/01/16 05:55:33;;;;;;;11.73;4.13;;;-2.60;99.90;;;;;;4874004;29;20052;-67
2021/01/16 05:58:07;;;;;;;18.70;5.55;;;-2.60;99.90;;;;;;4876436;29;20033;-67
2021/01/16 06:00:39;;;;;;;11.93;4.90;;;-2.60;99.90;;;;;;4872656;29;20053;-68
2021/01/16 06:03:08;;;;;;;15.43;5.05;;;-2.60;99.90;;;;;;4864214;29;20386;-69
2021/01/16 06:05:35;;;;;;;20.75;7.25;;;-2.60;99.90;;;;;;4888042;29;20056;-69
2021/01/16 06:08:09;;;;;;;27.67;10.80;;;-2.60;99.90;;;;;;4866946;29;20125;-69
2021/01/16 06:10:35;;;;;;;35.95;12.10;;;-2.60;99.90;;;;;;4870854;29;20054;-69
2021/01/16 06:13:13;;;;;;;22.65;9.18;;;-2.60;99.90;;;;;;4874091;29;20049;-68
2021/01/16 06:15:50;;;;;;;26.17;9.35;;;-2.60;99.90;;;;;;4875561;29;20389;-69
2021/01/16 06:18:19;;;;;;;15.93;6.00;;;-2.60;99.90;;;;;;4885403;29;20420;-70
2021/01/16 06:20:52;;;;;;;19.88;7.10;;;-2.60;99.90;;;;;;4869316;29;20098;-70
2021/01/16 06:23:20;;;;;;;;;;;-2.60;99.90;;;;;;4892196;29;20745;-69
2021/01/16 06:26:05;;;;;;;19.60;5.65;;;-2.60;99.90;;;;;;4878829;29;19927;-68
2021/01/16 06:28:51;;;;;;;26.65;8.70;;;-2.60;99.90;;;;;;4890756;29;20053;-69
2021/01/16 06:31:30;;;;;;;22.10;6.20;;;-2.60;99.90;;;;;;4892514;29;20052;-69
2021/01/16 06:34:05;;;;;;;13.95;5.40;;;-2.60;99.90;;;;;;4876507;29;20113;-70
2021/01/16 06:36:34;;;;;;;15.75;5.63;;;-2.60;99.90;;;;;;4862976;29;20052;-69
2021/01/16 06:39:09;;;;;;;16.65;5.28;;;-2.60;99.90;;;;;;4863716;29;20042;-69
2021/01/16 06:41:38;;;;;;;15.43;4.95;;;-2.60;99.90;;;;;;4891537;29;20064;-69
2021/01/16 06:44:15;;;;;;;14.70;5.13;;;-2.60;99.90;;;;;;4873383;29;20090;-68
2021/01/16 06:46:43;;;;;;;16.85;5.82;;;-2.50;99.90;;;;;;4876725;29;20160;-69
2021/01/16 06:49:39;;;;;;;15.45;5.88;;;-2.50;99.90;;;;;;4869097;29;20500;-70
2021/01/16 06:52:07;;;;;;;11.05;4.53;;;-2.50;99.90;;;;;;4860703;29;20056;-69
2021/01/16 06:54:35;;;;;;;12.93;5.10;;;-2.40;99.90;;;;;;4870516;29;20050;-70
2021/01/16 06:57:08;;;;;;;13.65;5.00;;;-2.40;99.90;;;;;;4879054;29;20089;-69
2021/01/16 06:59:40;;;;;;;12.95;4.45;;;-2.40;99.90;;;;;;4867174;29;20053;-69
2021/01/16 07:02:30;;;;;;;15.25;6.13;;;-2.30;99.90;;;;;;4871483;29;20056;-69
2021/01/16 07:05:05;;;;;;;14.43;4.65;;;-2.30;99.90;;;;;;4871899;29;20259;-69
2021/01/16 07:07:40;;;;;;;15.63;5.07;;;-2.30;99.90;;;;;;4870502;29;20050;-70
2021/01/16 07:10:08;;;;;;;20.27;5.82;;;-2.30;99.90;;;;;;4878269;29;20045;-69
2021/01/16 07:12:37;;;;;;;13.85;4.72;;;-2.20;99.90;;;;;;4872572;29;20052;-69
2021/01/16 07:15:05;;;;;;;22.88;7.00;;;-2.20;99.90;;;;;;4874812;29;20072;-69
2021/01/16 07:17:32;;;;;;;11.82;4.90;;;-2.20;99.90;;;;;;4873100;29;20056;-69
2021/01/16 07:20:00;;;;;;;19.23;7.28;;;-2.20;99.90;;;;;;4869195;29;20049;-69
2021/01/16 07:22:31;;;;;;;19.95;6.47;;;-2.20;99.90;;;;;;4869256;29;20049;-69
2021/01/16 07:25:01;;;;;;;15.85;6.10;;;-2.10;99.90;;;;;;4884961;29;20109;-69
2021/01/16 07:27:29;;;;;;;17.08;7.20;;;-2.10;99.90;;;;;;4864304;29;20061;-69
2021/01/16 07:29:57;;;;;;;20.67;6.80;;;-2.10;99.90;;;;;;4867167;29;20056;-69
2021/01/16 07:32:47;;;;;;;19.95;6.85;;;-2.00;99.90;;;;;;4873841;29;20041;-71
2021/01/16 07:35:21;;;;;;;18.73;6.85;;;-2.00;99.90;;;;;;4875067;29;20033;-69
2021/01/16 07:37:52;;;;;;;18.30;7.10;;;-1.90;99.90;;;;;;4873637;29;20053;-69
2021/01/16 07:40:29;;;;;;;18.88;6.53;;;-1.80;99.90;;;;;;4876287;29;20061;-69
2021/01/16 07:42:57;;;;;;;14.05;4.57;;;-1.70;99.90;;;;;;4867409;29;20068;-68
2021/01/16 07:45:25;;;;;;;19.48;6.47;;;-1.60;99.90;;;;;;4871852;29;20041;-69
2021/01/16 07:47:55;;;;;;;15.73;5.45;;;-1.40;99.90;;;;;;4873120;29;20045;-69
2021/01/16 07:50:23;;;;;;;18.42;6.25;;;-1.30;99.90;;;;;;4884316;29;20041;-69
2021/01/16 07:52:55;;;;;;;15.05;5.78;;;-1.10;99.90;;;;;;4873298;29;20041;-66
2021/01/16 07:55:46;;;;;;;20.23;5.60;;;-0.90;99.60;;;;;;4876070;29;20045;-67
2021/01/16 07:58:29;;;;;;;18.85;6.25;;;-0.80;99.30;;;;;;4871118;29;20045;-68
2021/01/16 08:01:16;;;;;;;28.52;8.57;;;-0.60;98.80;;;;;;4866883;29;20048;-67
2021/01/16 08:04:05;;;;;;;15.65;6.35;;;-0.40;98.40;;;;;;4866156;29;20123;-67
2021/01/16 08:07:04;;;;;;;17.50;6.85;;;-0.20;96.50;;;;;;4869755;29;20382;-66
2021/01/16 08:09:46;;;;;;;17.42;6.40;;;0.00;95.80;;;;;;4877552;29;20060;-67
2021/01/16 08:12:13;;;;;;;13.50;5.80;;;0.10;95.10;;;;;;4873747;29;20041;-67
2021/01/16 08:14:41;;;;;;;20.45;6.30;;;0.20;93.60;;;;;;4874622;29;20556;-67
2021/01/16 08:17:35;;;;;;;19.05;8.00;;;0.30;93.30;;;;;;4878122;29;20068;-67
2021/01/16 08:20:01;;;;;;;14.00;5.90;;;0.60;92.80;;;;;;4866112;29;20061;-67
2021/01/16 08:22:40;;;;;;;14.77;6.00;;;0.70;96.10;;;;;;4865241;29;20451;-68
2021/01/16 08:25:12;;;;;;;18.05;5.70;;;1.00;92.30;;;;;;4871988;29;20037;-67
2021/01/16 08:27:59;;;;;;;16.95;5.70;;;1.10;91.40;;;;;;4886052;29;20061;-67
2021/01/16 08:30:31;;;;;;;15.75;3.85;;;1.30;90.10;;;;;;4873435;29;20049;-67
2021/01/16 08:33:12;;;;;;;11.70;3.80;;;1.30;86.70;;;;;;4882786;29;20684;-68
2021/01/16 08:35:44;;;;;;;13.95;4.78;;;1.30;85.50;;;;;;4851596;29;20072;-68
2021/01/16 08:38:17;;;;;;;12.63;4.45;;;1.30;85.40;;;;;;4878125;29;20057;-69
2021/01/16 08:41:04;;;;;;;13.15;3.83;;;1.30;85.50;;;;;;4870241;29;20055;-68
2021/01/16 08:43:38;;;;;;;12.52;4.28;;;1.30;84.20;;;;;;4870910;29;20055;-68
2021/01/16 08:46:30;;;;;;;13.35;4.75;;;1.30;84.50;;;;;;4868834;29;20068;-68
2021/01/16 08:49:14;;;;;;;11.85;3.30;;;1.30;84.50;;;;;;4863061;29;20049;-69
2021/01/16 08:51:44;;;;;;;9.18;3.53;;;1.40;84.20;;;;;;4869157;29;20045;-68
2021/01/16 08:54:11;;;;;;;8.52;3.40;;;1.50;82.30;;;;;;4876038;29;20510;-69
2021/01/16 08:56:39;;;;;;;11.48;3.42;;;1.60;81.10;;;;;;4869694;29;20041;-65
2021/01/16 08:59:18;;;;;;;9.30;3.42;;;1.70;80.90;;;;;;4870529;29;20105;-65
2021/01/16 09:01:46;;;;;;;10.68;4.50;;;1.60;80.20;;;;;;4867690;29;20052;-65
2021/01/16 09:04:24;;;;;;;12.60;4.60;;;1.60;80.80;;;;;;4866129;29;20045;-64
2021/01/16 09:06:52;;;;;;;12.30;3.83;;;1.60;81.20;;;;;;4883531;29;20114;-64
2021/01/16 09:09:27;;;;;;;13.73;4.00;;;1.50;79.30;;;;;;4866093;29;20061;-64
2021/01/16 09:12:11;;;;;;;12.27;4.18;;;1.50;79.70;;;;;;4856652;29;20057;-65
2021/01/16 09:14:40;;;;;;;10.45;3.22;;;1.50;80.30;;;;;;4884801;29;20553;-66
2021/01/16 09:17:21;;;;;;;12.43;4.03;;;1.40;78.90;;;;;;4862786;29;20056;-65
2021/01/16 09:19:58;;;;;;;12.15;3.47;;;1.50;78.70;;;;;;4870447;29;20073;-65
2021/01/16 09:22:27;;;;;;;13.82;4.47;;;1.60;79.60;;;;;;4880360;29;20061;-65
2021/01/16 09:25:14;;;;;;;13.05;3.80;;;1.70;78.90;;;;;;4866874;29;20094;-64
2021/01/16 09:27:46;;;;;;;11.02;3.42;;;1.80;77.90;;;;;;4866017;29;20533;-66
2021/01/16 09:30:18;;;;;;;11.10;2.92;;;2.00;76.10;;;;;;4868844;29;20049;-67
2021/01/16 09:32:45;;;;;;;8.95;3.65;;;2.10;76.00;;;;;;4883241;29;20045;-65
2021/01/16 09:35:12;;;;;;;13.07;4.32;;;2.20;76.00;;;;;;4858389;29;20136;-67
2021/01/16 09:37:38;;;;;;;9.85;4.22;;;2.40;74.70;;;;;;4863819;29;20052;-65
2021/01/16 09:40:08;;;;;;;9.13;3.28;;;2.40;72.60;;;;;;4880000;29;20049;-68
2021/01/16 09:42:46;;;;;;;10.30;2.63;;;2.60;73.90;;;;;;4883361;29;20052;-65
2021/01/16 09:45:14;;;;;;;10.93;3.20;;;2.70;71.20;;;;;;4867404;29;20060;-67
2021/01/16 09:47:43;;;;;;;8.25;3.08;;;2.80;71.10;;;;;;4867336;29;20505;-66
2021/01/16 09:50:19;;;;;;;8.93;2.60;;;2.80;70.30;;;;;;4855884;29;20060;-63
2021/01/16 09:52:54;;;;;;;15.23;3.53;;;2.70;69.60;;;;;;4880141;29;20057;-64
2021/01/16 09:55:32;;;;;;;7.07;2.58;;;2.70;68.90;;;;;;4877067;29;20045;-64
2021/01/16 09:58:02;;;;;;;12.07;4.47;;;2.70;68.90;;;;;;4870315;29;20044;-66
2021/01/16 10:00:32;;;;;;;14.60;5.22;;;2.70;67.90;;;;;;4869640;29;20052;-70
2021/01/16 10:03:10;;;;;;;35.33;10.00;;;2.90;68.90;;;;;;4870832;29;20040;-70
2021/01/16 10:05:39;;;;;;;12.55;4.78;;;2.80;67.10;;;;;;4882328;29;20056;-72
2021/01/16 10:08:26;;;;;;;7.15;2.95;;;2.80;68.20;;;;;;4871344;29;20082;-71
2021/01/16 10:10:53;;;;;;;6.90;2.63;;;2.90;67.80;;;;;;4870332;29;20071;-66
2021/01/16 10:13:33;;;;;;;8.50;2.40;;;2.70;66.80;;;;;;4881240;29;20041;-69
2021/01/16 10:16:03;;;;;;;6.22;2.38;;;2.70;65.90;;;;;;4875304;29;20105;-70
2021/01/16 10:18:32;;;;;;;6.30;2.45;;;2.60;66.60;;;;;;4876102;29;20513;-70
2021/01/16 10:21:09;;;;;;;8.63;3.50;;;2.60;67.50;;;;;;4885535;29;20059;-69
2021/01/16 10:23:38;;;;;;;5.78;2.47;;;2.70;67.50;;;;;;4889001;29;20060;-70
2021/01/16 10:26:16;;;;;;;6.03;2.10;;;2.70;66.10;;;;;;4863524;29;20516;-71
2021/01/16 10:28:48;;;;;;;9.30;2.58;;;2.60;65.30;;;;;;4869755;29;20042;-71
2021/01/16 10:31:23;;;;;;;6.30;2.10;;;2.70;66.10;;;;;;4865923;29;20049;-71
2021/01/16 10:33:50;;;;;;;5.38;2.13;;;2.50;65.20;;;;;;4883477;29;20137;-68
2021/01/16 10:36:19;;;;;;;8.43;3.75;;;2.60;67.40;;;;;;4866601;29;20045;-66
2021/01/16 10:38:51;;;;;;;7.95;2.92;;;2.70;67.30;;;;;;4867684;29;20116;-66
2021/01/16 10:41:35;;;;;;;18.23;5.40;;;2.60;67.60;;;;;;4870197;29;20060;-65
2021/01/16 10:44:06;;;;;;;23.27;7.78;;;2.50;67.50;;;;;;4881140;29;20160;-65
2021/01/16 10:46:43;;;;;;;17.75;6.03;;;2.50;67.90;;;;;;4873112;29;20056;-65
2021/01/16 10:49:13;;;;;;;9.68;3.88;;;2.40;67.90;;;;;;4885300;29;20049;-66
2021/01/16 10:52:02;;;;;;;12.02;4.22;;;2.40;67.50;;;;;;4872782;29;20049;-66
2021/01/16 10:54:30;;;;;;;8.35;3.00;;;2.50;67.70;;;;;;4868454;29;20045;-63
2021/01/16 10:57:02;;;;;;;9.15;3.38;;;2.60;68.70;;;;;;4874067;29;20100;-64
2021/01/16 10:59:34;;;;;;;7.93;3.58;;;2.60;67.60;;;;;;4870634;29;20045;-66
2021/01/16 11:02:15;;;;;;;8.10;2.92;;;2.70;68.70;;;;;;4872194;29;20065;-65
2021/01/16 11:04:44;;;;;;;8.40;2.70;;;2.80;67.50;;;;;;4879667;29;20453;-65
2021/01/16 11:07:29;;;;;;;6.07;2.03;;;2.80;67.30;;;;;;4866699;29;20100;-62
2021/01/16 11:10:06;;;;;;;4.88;1.90;;;2.70;68.40;;;;;;4882223;29;20496;-64
2021/01/16 11:12:33;;;;;;;7.72;2.20;;;2.70;68.60;;;;;;4865699;29;20133;-62
2021/01/16 11:15:01;;;;;;;9.27;2.75;;;2.50;67.70;;;;;;4865344;29;20057;-65
2021/01/16 11:17:49;;;;;;;7.32;2.10;;;2.40;67.60;;;;;;4872352;29;20602;-67
2021/01/16 11:20:29;;;;;;;8.82;3.10;;;2.40;67.90;;;;;;4869062;29;20045;-67
2021/01/16 11:23:07;;;;;;;6.65;2.38;;;2.40;68.70;;;;;;4879072;29;20132;-67
2021/01/16 11:25:42;;;;;;;8.93;1.92;;;2.40;69.10;;;;;;4873016;29;20041;-69
2021/01/16 11:28:10;;;;;;;13.35;3.53;;;2.50;68.00;;;;;;4871438;29;20061;-69
2021/01/16 11:30:48;;;;;;;9.18;3.33;;;2.50;66.80;;;;;;4885556;29;20536;-69
2021/01/16 11:33:26;;;;;;;6.72;2.40;;;2.20;67.30;;;;;;4872149;29;20046;-69
2021/01/16 11:36:02;;;;;;;7.32;2.55;;;2.20;69.20;;;;;;4871321;29;20374;-68
2021/01/16 11:38:46;;;;;;;7.07;2.42;;;2.40;68.50;;;;;;4874357;29;20053;-68
2021/01/16 11:41:52;;;;;;;8.02;2.40;;;2.40;68.50;;;;;;4884587;29;20131;-68
2021/01/16 11:44:20;;;;;;;9.13;3.13;;;2.60;68.70;;;;;;4861439;29;20052;-66
2021/01/16 11:46:53;;;;;;;8.70;3.17;;;2.50;68.20;;;;;;4872952;29;20150;-64
2021/01/16 11:49:21;;;;;;;23.13;10.63;;;2.50;67.40;;;;;;4869693;29;20049;-64
2021/01/16 11:51:48;;;;;;;14.32;5.82;;;2.80;68.00;;;;;;4873603;29;20037;-64
2021/01/16 11:54:24;;;;;;;16.38;6.72;;;2.60;66.90;;;;;;4871138;29;20037;-64
2021/01/16 11:56:54;;;;;;;18.77;6.50;;;2.60;67.10;;;;;;4877207;29;20029;-64
2021/01/16 11:59:21;;;;;;;11.10;4.10;;;2.70;68.50;;;;;;4870010;29;20050;-66
2021/01/16 12:01:48;;;;;;;8.55;3.10;;;2.80;66.90;;;;;;4862063;29;20049;-64
2021/01/16 12:04:15;;;;;;;7.43;2.90;;;2.90;66.90;;;;;;4870648;29;20057;-65
2021/01/16 12:06:42;;;;;;;8.07;2.83;;;2.90;66.40;;;;;;4857341;29;20053;-66
2021/01/16 12:09:14;;;;;;;6.45;2.65;;;2.80;65.90;;;;;;4870555;29;20065;-66
2021/01/16 12:11:50;;;;;;;7.82;2.20;;;2.60;65.90;;;;;;4876434;29;20057;-67
2021/01/16 12:14:17;;;;;;;5.90;1.73;;;2.60;66.80;;;;;;4874121;29;20696;-66
2021/01/16 12:16:46;;;;;;;7.57;2.58;;;2.70;66.40;;;;;;4871134;29;20094;-65
2021/01/16 12:19:15;;;;;;;7.25;2.78;;;2.70;65.80;;;;;;4870572;29;20046;-66
2021/01/16 12:21:46;;;;;;;7.65;2.60;;;2.70;65.10;;;;;;4874316;29;20532;-66
2021/01/16 12:24:15;;;;;;;7.15;2.40;;;2.70;64.80;;;;;;4856222;29;20076;-65
2021/01/16 12:26:49;;;;;;;9.30;3.03;;;2.70;64.60;;;;;;4884709;29;20063;-65
2021/01/16 12:29:34;;;;;;;8.10;3.20;;;2.70;65.40;;;;;;4871745;29;20481;-65
2021/01/16 12:32:06;;;;;;;7.70;3.50;;;2.60;64.40;;;;;;4863318;29;20041;-66
2021/01/16 12:34:33;;;;;;;9.68;3.13;;;2.70;65.30;;;;;;4882757;29;20066;-66
2021/01/16 12:37:01;;;;;;;9.25;3.95;;;2.70;66.10;;;;;;4874954;29;20047;-66
2021/01/16 12:39:28;;;;;;;11.52;3.40;;;2.70;65.50;;;;;;4875533;29;20046;-66
2021/01/16 12:41:59;;;;;;;9.55;3.63;;;2.70;65.70;;;;;;4870193;29;20048;-66
2021/01/16 12:44:25;;;;;;;6.97;2.65;;;2.70;66.20;;;;;;4862876;29;20053;-70
2021/01/16 12:46:53;;;;;;;5.28;2.33;;;2.50;65.50;;;;;;4874994;29;20048;-71
2021/01/16 12:49:20;;;;;;;6.90;2.47;;;2.50;65.70;;;;;;4874617;29;20048;-70
2021/01/16 12:51:48;;;;;;;8.13;3.15;;;2.50;66.10;;;;;;4884552;29;20386;-69
2021/01/16 12:54:16;;;;;;;9.07;3.53;;;2.70;65.90;;;;;;4863982;29;20037;-68
2021/01/16 12:56:50;;;;;;;11.13;3.00;;;2.80;65.00;;;;;;4866379;29;20124;-67
2021/01/16 12:59:19;;;;;;;12.57;3.95;;;2.80;64.10;;;;;;4872763;29;20053;-68
2021/01/16 13:01:51;;;;;;;10.20;2.75;;;2.90;65.30;;;;;;4865991;29;20508;-68
2021/01/16 14:17:54;;;;;;;11.55;3.17;;;1.20;69.90;;;;;;3244667;27;20061;-54
2021/01/16 14:20:29;;;;;;;7.97;2.50;;;1.10;70.60;;;;;;4869570;29;20324;-53